sensor_id;sensor_type;location;lat;lon;timestamp;pressure;altitude;pressure_sealevel;temperature;humidity
60417;BME280;46263;44.726;10.396;2022-07-23T00:01:27;100241.97;;;27.10;40.15
60417;BME280;46263;44.726;10.396;2022-07-23T00:03:53;100228.59;;;27.00;39.79
60417;BME280;46263;44.726;10.396;2022-07-23T00:06:19;100236.31;;;27.06;39.49
60417;BME280;46263;44.726;10.396;2022-07-23T00:08:45;100234.38;;;27.19;39.40
60417;BME280;46263;44.726;10.396;2022-07-23T00:11:10;100238.63;;;27.16;39.39
60417;BME280;46263;44.726;10.396;2022-07-23T00:13:36;100237.59;;;26.88;41.64
60417;BME280;46263;44.726;10.396;2022-07-23T00:16:01;100244.16;;;26.83;41.62
60417;BME280;46263;44.726;10.396;2022-07-23T00:18:26;100237.91;;;26.74;41.16
60417;BME280;46263;44.726;10.396;2022-07-23T00:20:52;100237.63;;;26.55;42.40
60417;BME280;46263;44.726;10.396;2022-07-23T00:23:17;100233.69;;;26.35;42.90
60417;BME280;46263;44.726;10.396;2022-07-23T00:25:42;100238.00;;;26.45;43.67
60417;BME280;46263;44.726;10.396;2022-07-23T00:28:08;100233.41;;;26.28;43.89
60417;BME280;46263;44.726;10.396;2022-07-23T00:30:33;100237.78;;;26.29;42.21
60417;BME280;46263;44.726;10.396;2022-07-23T00:32:59;100240.91;;;26.48;42.05
60417;BME280;46263;44.726;10.396;2022-07-23T00:35:27;100231.97;;;26.51;42.32
60417;BME280;46263;44.726;10.396;2022-07-23T00:37:53;100223.75;;;26.22;42.60
60417;BME280;46263;44.726;10.396;2022-07-23T00:40:19;100225.50;;;26.27;43.55
60417;BME280;46263;44.726;10.396;2022-07-23T00:42:44;100230.03;;;25.72;43.99
60417;BME280;46263;44.726;10.396;2022-07-23T00:45:10;100225.31;;;25.81;44.62
60417;BME280;46263;44.726;10.396;2022-07-23T00:47:44;100222.47;;;25.61;45.54
60417;BME280;46263;44.726;10.396;2022-07-23T00:50:10;100215.91;;;25.44;46.58
60417;BME280;46263;44.726;10.396;2022-07-23T00:52:35;100217.84;;;25.44;46.33
60417;BME280;46263;44.726;10.396;2022-07-23T00:55:01;100225.22;;;25.61;46.22
60417;BME280;46263;44.726;10.396;2022-07-23T00:57:27;100209.19;;;25.24;46.91
60417;BME280;46263;44.726;10.396;2022-07-23T00:59:53;100211.44;;;25.40;46.52
60417;BME280;46263;44.726;10.396;2022-07-23T01:02:18;100219.63;;;25.48;46.79
60417;BME280;46263;44.726;10.396;2022-07-23T01:04:44;100210.31;;;25.70;45.05
60417;BME280;46263;44.726;10.396;2022-07-23T01:07:10;100214.56;;;25.68;44.88
60417;BME280;46263;44.726;10.396;2022-07-23T01:09:35;100211.88;;;25.80;44.43
60417;BME280;46263;44.726;10.396;2022-07-23T01:12:01;100205.22;;;25.81;43.73
60417;BME280;46263;44.726;10.396;2022-07-23T01:14:26;100211.09;;;25.71;45.93
60417;BME280;46263;44.726;10.396;2022-07-23T01:16:52;100203.69;;;25.63;44.07
60417;BME280;46263;44.726;10.396;2022-07-23T01:19:17;100211.69;;;25.47;46.08
60417;BME280;46263;44.726;10.396;2022-07-23T01:21:44;100206.38;;;25.42;45.90
60417;BME280;46263;44.726;10.396;2022-07-23T01:24:10;100196.25;;;25.25;45.16
60417;BME280;46263;44.726;10.396;2022-07-23T01:26:36;100196.25;;;25.25;45.25
60417;BME280;46263;44.726;10.396;2022-07-23T01:29:02;100205.22;;;24.87;45.80
60417;BME280;46263;44.726;10.396;2022-07-23T01:31:27;100191.66;;;24.91;46.00
60417;BME280;46263;44.726;10.396;2022-07-23T01:33:53;100189.91;;;24.95;45.91
60417;BME280;46263;44.726;10.396;2022-07-23T01:36:18;100192.63;;;24.86;47.04
60417;BME280;46263;44.726;10.396;2022-07-23T01:38:44;100192.16;;;24.84;46.50
60417;BME280;46263;44.726;10.396;2022-07-23T01:41:09;100187.50;;;24.68;46.66
60417;BME280;46263;44.726;10.396;2022-07-23T01:43:35;100190.91;;;24.65;46.70
60417;BME280;46263;44.726;10.396;2022-07-23T01:46:00;100195.25;;;24.83;46.33
60417;BME280;46263;44.726;10.396;2022-07-23T01:48:25;100197.03;;;24.62;45.14
60417;BME280;46263;44.726;10.396;2022-07-23T01:50:51;100199.13;;;24.73;44.12
60417;BME280;46263;44.726;10.396;2022-07-23T01:53:16;100193.31;;;24.75;44.06
60417;BME280;46263;44.726;10.396;2022-07-23T01:55:41;100198.16;;;24.78;43.98
60417;BME280;46263;44.726;10.396;2022-07-23T01:58:07;100202.97;;;24.89;42.91
60417;BME280;46263;44.726;10.396;2022-07-23T02:00:32;100212.03;;;24.90;43.52
60417;BME280;46263;44.726;10.396;2022-07-23T02:02:58;100217.22;;;24.83;43.62
60417;BME280;46263;44.726;10.396;2022-07-23T02:05:24;100208.69;;;24.67;43.78
60417;BME280;46263;44.726;10.396;2022-07-23T02:07:49;100222.09;;;24.77;43.57
60417;BME280;46263;44.726;10.396;2022-07-23T02:10:14;100215.59;;;24.99;43.12
60417;BME280;46263;44.726;10.396;2022-07-23T02:12:39;100211.56;;;24.97;42.87
60417;BME280;46263;44.726;10.396;2022-07-23T02:15:05;100215.38;;;25.13;42.22
60417;BME280;46263;44.726;10.396;2022-07-23T02:17:30;100215.84;;;25.15;41.87
60417;BME280;46263;44.726;10.396;2022-07-23T02:19:56;100217.84;;;25.06;42.22
60417;BME280;46263;44.726;10.396;2022-07-23T02:22:21;100222.03;;;25.12;42.27
60417;BME280;46263;44.726;10.396;2022-07-23T02:24:46;100225.41;;;25.17;42.02
60417;BME280;46263;44.726;10.396;2022-07-23T02:27:12;100228.50;;;24.90;42.21
60417;BME280;46263;44.726;10.396;2022-07-23T02:29:37;100234.81;;;25.08;41.86
60417;BME280;46263;44.726;10.396;2022-07-23T02:32:02;100231.94;;;24.96;42.67
60417;BME280;46263;44.726;10.396;2022-07-23T02:34:28;100239.19;;;24.91;42.17
60417;BME280;46263;44.726;10.396;2022-07-23T02:36:53;100247.78;;;24.73;42.56
60417;BME280;46263;44.726;10.396;2022-07-23T02:39:18;100246.47;;;24.87;42.33
60417;BME280;46263;44.726;10.396;2022-07-23T02:41:43;100249.72;;;24.81;42.18
60417;BME280;46263;44.726;10.396;2022-07-23T02:44:09;100250.38;;;24.95;41.89
60417;BME280;46263;44.726;10.396;2022-07-23T02:46:34;100251.78;;;24.92;41.74
60417;BME280;46263;44.726;10.396;2022-07-23T02:48:59;100252.31;;;24.69;42.61
60417;BME280;46263;44.726;10.396;2022-07-23T02:51:25;100257.28;;;24.84;42.21
60417;BME280;46263;44.726;10.396;2022-07-23T02:53:50;100261.22;;;24.83;42.46
60417;BME280;46263;44.726;10.396;2022-07-23T02:56:15;100258.94;;;25.02;42.29
60417;BME280;46263;44.726;10.396;2022-07-23T02:58:40;100258.53;;;25.30;42.57
60417;BME280;46263;44.726;10.396;2022-07-23T03:01:06;100253.75;;;25.56;42.54
60417;BME280;46263;44.726;10.396;2022-07-23T03:03:31;100247.38;;;25.73;42.59
60417;BME280;46263;44.726;10.396;2022-07-23T03:05:56;100256.72;;;25.80;42.58
60417;BME280;46263;44.726;10.396;2022-07-23T03:08:22;100263.38;;;25.79;43.26
60417;BME280;46263;44.726;10.396;2022-07-23T03:10:47;100255.50;;;25.69;43.73
60417;BME280;46263;44.726;10.396;2022-07-23T03:13:12;100255.44;;;25.78;42.91
60417;BME280;46263;44.726;10.396;2022-07-23T03:15:38;100255.28;;;25.74;43.25
60417;BME280;46263;44.726;10.396;2022-07-23T03:18:03;100258.84;;;25.75;42.67
60417;BME280;46263;44.726;10.396;2022-07-23T03:20:28;100253.06;;;25.59;43.17
60417;BME280;46263;44.726;10.396;2022-07-23T03:22:54;100255.84;;;25.68;43.28
60417;BME280;46263;44.726;10.396;2022-07-23T03:25:19;100248.88;;;25.62;43.25
60417;BME280;46263;44.726;10.396;2022-07-23T03:27:44;100249.66;;;25.62;43.27
60417;BME280;46263;44.726;10.396;2022-07-23T03:30:10;100244.34;;;25.66;43.61
60417;BME280;46263;44.726;10.396;2022-07-23T03:32:36;100246.81;;;25.50;44.00
60417;BME280;46263;44.726;10.396;2022-07-23T03:35:02;100250.47;;;25.63;42.95
60417;BME280;46263;44.726;10.396;2022-07-23T03:37:27;100250.81;;;25.70;42.06
60417;BME280;46263;44.726;10.396;2022-07-23T03:39:52;100251.63;;;25.62;41.90
60417;BME280;46263;44.726;10.396;2022-07-23T03:42:17;100250.84;;;25.52;42.72
60417;BME280;46263;44.726;10.396;2022-07-23T03:44:43;100255.81;;;25.21;42.93
60417;BME280;46263;44.726;10.396;2022-07-23T03:47:08;100252.78;;;25.05;42.65
60417;BME280;46263;44.726;10.396;2022-07-23T03:49:33;100252.28;;;24.95;43.42
60417;BME280;46263;44.726;10.396;2022-07-23T03:51:59;100255.50;;;24.88;42.79
60417;BME280;46263;44.726;10.396;2022-07-23T03:54:24;100255.88;;;24.78;42.62
60417;BME280;46263;44.726;10.396;2022-07-23T03:56:49;100255.72;;;24.66;42.42
60417;BME280;46263;44.726;10.396;2022-07-23T03:59:14;100255.53;;;24.71;42.88
60417;BME280;46263;44.726;10.396;2022-07-23T04:01:40;100258.25;;;24.88;42.69
60417;BME280;46263;44.726;10.396;2022-07-23T04:04:05;100261.00;;;25.14;41.63
60417;BME280;46263;44.726;10.396;2022-07-23T04:06:30;100263.94;;;25.09;41.98
60417;BME280;46263;44.726;10.396;2022-07-23T04:08:55;100264.75;;;25.09;42.00
60417;BME280;46263;44.726;10.396;2022-07-23T04:11:21;100266.31;;;25.19;41.65
60417;BME280;46263;44.726;10.396;2022-07-23T04:13:46;100270.59;;;24.73;42.21
60417;BME280;46263;44.726;10.396;2022-07-23T04:16:11;100272.84;;;24.71;42.43
60417;BME280;46263;44.726;10.396;2022-07-23T04:18:36;100273.47;;;24.85;42.05
60417;BME280;46263;44.726;10.396;2022-07-23T04:21:02;100274.91;;;24.91;42.29
60417;BME280;46263;44.726;10.396;2022-07-23T04:23:27;100281.22;;;24.92;42.20
60417;BME280;46263;44.726;10.396;2022-07-23T04:25:52;100279.16;;;24.80;43.06
60417;BME280;46263;44.726;10.396;2022-07-23T04:28:18;100279.13;;;24.89;43.16
60417;BME280;46263;44.726;10.396;2022-07-23T04:30:43;100276.22;;;24.85;42.81
60417;BME280;46263;44.726;10.396;2022-07-23T04:33:08;100271.53;;;24.86;42.85
60417;BME280;46263;44.726;10.396;2022-07-23T04:35:33;100266.53;;;24.97;41.83
60417;BME280;46263;44.726;10.396;2022-07-23T04:37:59;100272.31;;;25.12;42.39
60417;BME280;46263;44.726;10.396;2022-07-23T04:40:25;100268.16;;;24.98;41.23
60417;BME280;46263;44.726;10.396;2022-07-23T04:42:50;100264.59;;;25.06;41.19
60417;BME280;46263;44.726;10.396;2022-07-23T04:45:15;100270.88;;;24.89;41.24
60417;BME280;46263;44.726;10.396;2022-07-23T04:47:40;100262.97;;;25.05;40.94
60417;BME280;46263;44.726;10.396;2022-07-23T04:50:06;100262.97;;;25.05;40.83
60417;BME280;46263;44.726;10.396;2022-07-23T04:52:31;100268.91;;;25.15;40.48
60417;BME280;46263;44.726;10.396;2022-07-23T04:54:56;100264.34;;;25.28;40.97
60417;BME280;46263;44.726;10.396;2022-07-23T04:57:22;100259.97;;;25.36;40.21
60417;BME280;46263;44.726;10.396;2022-07-23T04:59:47;100254.31;;;25.32;40.80
60417;BME280;46263;44.726;10.396;2022-07-23T05:02:12;100246.88;;;25.33;42.13
60417;BME280;46263;44.726;10.396;2022-07-23T05:04:37;100247.34;;;25.35;41.26
60417;BME280;46263;44.726;10.396;2022-07-23T05:07:03;100249.63;;;25.33;39.52
60417;BME280;46263;44.726;10.396;2022-07-23T05:09:29;100249.00;;;25.27;40.12
60417;BME280;46263;44.726;10.396;2022-07-23T05:11:54;100255.78;;;25.30;40.56
60417;BME280;46263;44.726;10.396;2022-07-23T05:20:28;100249.47;;;25.38;40.63
60417;BME280;46263;44.726;10.396;2022-07-23T05:22:53;100246.47;;;25.51;42.65
60417;BME280;46263;44.726;10.396;2022-07-23T05:25:18;100249.88;;;25.48;41.94
60417;BME280;46263;44.726;10.396;2022-07-23T05:27:44;100247.75;;;25.54;41.54
60417;BME280;46263;44.726;10.396;2022-07-23T05:30:09;100256.16;;;25.57;42.78
60417;BME280;46263;44.726;10.396;2022-07-23T05:32:35;100249.84;;;25.66;42.08
60417;BME280;46263;44.726;10.396;2022-07-23T05:35:02;100254.00;;;25.72;43.47
60417;BME280;46263;44.726;10.396;2022-07-23T05:37:27;100250.19;;;25.94;42.64
60417;BME280;46263;44.726;10.396;2022-07-23T05:39:52;100255.94;;;26.01;42.94
60417;BME280;46263;44.726;10.396;2022-07-23T05:42:17;100244.22;;;26.12;42.78
60417;BME280;46263;44.726;10.396;2022-07-23T05:44:43;100248.78;;;26.08;43.04
60417;BME280;46263;44.726;10.396;2022-07-23T05:47:08;100243.97;;;26.26;42.60
60417;BME280;46263;44.726;10.396;2022-07-23T05:49:33;100242.63;;;26.32;38.26
60417;BME280;46263;44.726;10.396;2022-07-23T05:51:58;100240.81;;;26.36;38.30
60417;BME280;46263;44.726;10.396;2022-07-23T05:54:28;100254.81;;;26.52;39.56
60417;BME280;46263;44.726;10.396;2022-07-23T05:56:53;100252.31;;;26.59;38.69
60417;BME280;46263;44.726;10.396;2022-07-23T05:59:18;100255.06;;;26.59;39.20
60417;BME280;46263;44.726;10.396;2022-07-23T06:01:43;100256.34;;;26.62;40.06
60417;BME280;46263;44.726;10.396;2022-07-23T06:04:09;100257.81;;;26.59;41.99
60417;BME280;46263;44.726;10.396;2022-07-23T06:06:34;100268.38;;;26.57;43.13
60417;BME280;46263;44.726;10.396;2022-07-23T06:08:59;100268.13;;;26.50;43.86
60417;BME280;46263;44.726;10.396;2022-07-23T06:11:24;100263.81;;;26.40;44.73
60417;BME280;46263;44.726;10.396;2022-07-23T06:13:50;100264.34;;;26.34;44.04
60417;BME280;46263;44.726;10.396;2022-07-23T06:16:15;100262.66;;;26.41;44.34
60417;BME280;46263;44.726;10.396;2022-07-23T06:18:40;100265.84;;;26.52;43.79
60417;BME280;46263;44.726;10.396;2022-07-23T06:21:08;100269.25;;;26.70;43.47
60417;BME280;46263;44.726;10.396;2022-07-23T06:23:34;100263.31;;;26.80;44.58
60417;BME280;46263;44.726;10.396;2022-07-23T06:25:59;100271.97;;;26.90;43.31
60417;BME280;46263;44.726;10.396;2022-07-23T06:28:24;100270.97;;;26.95;42.82
60417;BME280;46263;44.726;10.396;2022-07-23T06:30:49;100278.03;;;26.84;44.51
60417;BME280;46263;44.726;10.396;2022-07-23T06:33:15;100277.34;;;26.87;44.44
60417;BME280;46263;44.726;10.396;2022-07-23T06:35:40;100280.38;;;26.94;44.72
60417;BME280;46263;44.726;10.396;2022-07-23T06:38:05;100292.03;;;27.00;45.01
60417;BME280;46263;44.726;10.396;2022-07-23T06:40:31;100300.00;;;27.13;44.57
60417;BME280;46263;44.726;10.396;2022-07-23T06:42:56;100288.41;;;27.20;42.66
60417;BME280;46263;44.726;10.396;2022-07-23T06:45:21;100288.66;;;27.27;43.07
60417;BME280;46263;44.726;10.396;2022-07-23T06:47:47;100285.34;;;27.34;41.76
60417;BME280;46263;44.726;10.396;2022-07-23T06:50:12;100287.09;;;27.50;41.75
60417;BME280;46263;44.726;10.396;2022-07-23T06:52:37;100287.94;;;27.63;40.31
60417;BME280;46263;44.726;10.396;2022-07-23T06:55:03;100292.22;;;27.85;39.30
60417;BME280;46263;44.726;10.396;2022-07-23T06:57:28;100291.84;;;28.11;39.24
60417;BME280;46263;44.726;10.396;2022-07-23T06:59:53;100286.00;;;28.25;39.57
60417;BME280;46263;44.726;10.396;2022-07-23T07:02:19;100290.38;;;28.26;39.69
60417;BME280;46263;44.726;10.396;2022-07-23T07:04:44;100298.03;;;28.44;39.50
60417;BME280;46263;44.726;10.396;2022-07-23T07:07:10;100300.84;;;28.72;36.77
60417;BME280;46263;44.726;10.396;2022-07-23T07:09:36;100298.34;;;28.95;34.94
60417;BME280;46263;44.726;10.396;2022-07-23T07:12:02;100307.16;;;29.13;34.16
60417;BME280;46263;44.726;10.396;2022-07-23T07:14:28;100310.34;;;29.43;33.15
60417;BME280;46263;44.726;10.396;2022-07-23T07:16:53;100321.56;;;29.34;33.56
60417;BME280;46263;44.726;10.396;2022-07-23T07:19:18;100314.75;;;29.44;32.81
60417;BME280;46263;44.726;10.396;2022-07-23T07:21:44;100324.72;;;29.48;32.89
60417;BME280;46263;44.726;10.396;2022-07-23T07:24:09;100322.50;;;29.54;32.88
60417;BME280;46263;44.726;10.396;2022-07-23T07:26:34;100324.75;;;29.64;32.68
60417;BME280;46263;44.726;10.396;2022-07-23T07:29:03;100322.97;;;29.72;32.89
60417;BME280;46263;44.726;10.396;2022-07-23T07:31:28;100323.56;;;29.81;32.62
60417;BME280;46263;44.726;10.396;2022-07-23T07:33:53;100334.84;;;29.88;32.62
60417;BME280;46263;44.726;10.396;2022-07-23T07:36:21;100335.63;;;29.88;32.81
60417;BME280;46263;44.726;10.396;2022-07-23T07:38:47;100335.81;;;29.96;33.09
60417;BME280;46263;44.726;10.396;2022-07-23T07:41:12;100338.06;;;30.06;33.17
60417;BME280;46263;44.726;10.396;2022-07-23T07:43:37;100338.41;;;30.20;34.00
60417;BME280;46263;44.726;10.396;2022-07-23T07:46:03;100334.47;;;30.21;34.34
60417;BME280;46263;44.726;10.396;2022-07-23T07:48:28;100336.97;;;30.26;34.72
60417;BME280;46263;44.726;10.396;2022-07-23T07:50:54;100337.78;;;30.27;35.31
60417;BME280;46263;44.726;10.396;2022-07-23T07:53:19;100344.00;;;30.39;35.44
60417;BME280;46263;44.726;10.396;2022-07-23T07:55:44;100333.66;;;30.55;35.53
60417;BME280;46263;44.726;10.396;2022-07-23T07:58:10;100336.16;;;30.26;36.92
60417;BME280;46263;44.726;10.396;2022-07-23T08:00:35;100340.31;;;30.35;36.50
60417;BME280;46263;44.726;10.396;2022-07-23T08:03:01;100337.09;;;30.33;36.60
60417;BME280;46263;44.726;10.396;2022-07-23T08:05:27;100336.91;;;30.42;36.11
60417;BME280;46263;44.726;10.396;2022-07-23T08:07:54;100336.53;;;30.24;36.39
60417;BME280;46263;44.726;10.396;2022-07-23T08:10:20;100335.94;;;30.34;37.51
60417;BME280;46263;44.726;10.396;2022-07-23T08:12:46;100341.50;;;30.34;37.11
60417;BME280;46263;44.726;10.396;2022-07-23T08:15:13;100343.28;;;30.42;37.09
60417;BME280;46263;44.726;10.396;2022-07-23T08:17:38;100342.38;;;30.38;37.86
60417;BME280;46263;44.726;10.396;2022-07-23T08:20:05;100338.97;;;30.45;38.63
60417;BME280;46263;44.726;10.396;2022-07-23T08:25:08;100351.47;;;30.54;38.63
60417;BME280;46263;44.726;10.396;2022-07-23T08:27:34;100341.75;;;30.61;38.53
60417;BME280;46263;44.726;10.396;2022-07-23T08:29:59;100345.44;;;30.68;38.30
60417;BME280;46263;44.726;10.396;2022-07-23T08:32:24;100338.41;;;30.55;40.32
60417;BME280;46263;44.726;10.396;2022-07-23T08:34:49;100347.34;;;30.64;39.12
60417;BME280;46263;44.726;10.396;2022-07-23T08:37:15;100342.56;;;30.80;39.06
60417;BME280;46263;44.726;10.396;2022-07-23T08:39:40;100337.00;;;30.80;39.16
60417;BME280;46263;44.726;10.396;2022-07-23T08:42:06;100340.13;;;30.79;41.96
60417;BME280;46263;44.726;10.396;2022-07-23T08:44:31;100341.16;;;30.90;40.25
60417;BME280;46263;44.726;10.396;2022-07-23T08:46:56;100350.16;;;30.83;41.02
60417;BME280;46263;44.726;10.396;2022-07-23T08:49:22;100344.75;;;31.10;40.99
60417;BME280;46263;44.726;10.396;2022-07-23T08:51:47;100342.06;;;31.13;40.23
60417;BME280;46263;44.726;10.396;2022-07-23T08:54:13;100343.22;;;31.12;40.18
60417;BME280;46263;44.726;10.396;2022-07-23T08:56:38;100328.88;;;31.10;40.27
60417;BME280;46263;44.726;10.396;2022-07-23T08:59:03;100330.97;;;31.13;39.50
60417;BME280;46263;44.726;10.396;2022-07-23T09:01:29;100329.69;;;31.11;39.93
60417;BME280;46263;44.726;10.396;2022-07-23T09:03:54;100326.25;;;31.37;39.28
60417;BME280;46263;44.726;10.396;2022-07-23T09:06:19;100331.50;;;31.42;38.42
60417;BME280;46263;44.726;10.396;2022-07-23T09:08:45;100336.19;;;31.61;37.66
60417;BME280;46263;44.726;10.396;2022-07-23T09:11:20;100330.50;;;31.53;37.36
60417;BME280;46263;44.726;10.396;2022-07-23T09:13:52;100328.34;;;31.66;39.18
60417;BME280;46263;44.726;10.396;2022-07-23T09:16:25;100328.50;;;31.73;37.66
60417;BME280;46263;44.726;10.396;2022-07-23T09:18:52;100335.47;;;31.86;36.87
60417;BME280;46263;44.726;10.396;2022-07-23T09:21:25;100332.25;;;31.84;36.51
60417;BME280;46263;44.726;10.396;2022-07-23T09:24:03;100329.88;;;32.09;36.58
60417;BME280;46263;44.726;10.396;2022-07-23T09:26:33;100333.00;;;32.08;36.62
60417;BME280;46263;44.726;10.396;2022-07-23T09:31:31;100318.56;;;32.21;36.04
60417;BME280;46263;44.726;10.396;2022-07-23T09:34:10;100322.00;;;32.15;35.99
60417;BME280;46263;44.726;10.396;2022-07-23T09:36:36;100328.31;;;32.12;36.31
60417;BME280;46263;44.726;10.396;2022-07-23T09:39:02;100325.38;;;32.24;36.07
60417;BME280;46263;44.726;10.396;2022-07-23T09:41:33;100326.72;;;32.34;35.51
60417;BME280;46263;44.726;10.396;2022-07-23T09:43:59;100330.03;;;32.46;36.05
60417;BME280;46263;44.726;10.396;2022-07-23T09:46:31;100323.94;;;32.34;36.13
60417;BME280;46263;44.726;10.396;2022-07-23T09:48:56;100322.66;;;32.58;36.97
60417;BME280;46263;44.726;10.396;2022-07-23T09:51:22;100322.22;;;32.55;36.42
60417;BME280;46263;44.726;10.396;2022-07-23T09:54:02;100319.78;;;32.80;36.82
60417;BME280;46263;44.726;10.396;2022-07-23T09:56:28;100312.88;;;32.71;36.30
60417;BME280;46263;44.726;10.396;2022-07-23T09:58:53;100320.09;;;33.05;36.71
60417;BME280;46263;44.726;10.396;2022-07-23T10:01:36;100314.75;;;32.90;35.74
60417;BME280;46263;44.726;10.396;2022-07-23T10:04:02;100305.16;;;33.20;35.34
60417;BME280;46263;44.726;10.396;2022-07-23T10:06:27;100302.66;;;33.12;35.65
60417;BME280;46263;44.726;10.396;2022-07-23T10:08:53;100309.97;;;33.64;34.63
60417;BME280;46263;44.726;10.396;2022-07-23T10:11:20;100314.81;;;32.97;34.26
60417;BME280;46263;44.726;10.396;2022-07-23T10:13:46;100301.31;;;33.32;33.87
60417;BME280;46263;44.726;10.396;2022-07-23T10:16:20;100306.59;;;33.07;33.99
60417;BME280;46263;44.726;10.396;2022-07-23T10:18:46;100293.97;;;33.17;34.99
60417;BME280;46263;44.726;10.396;2022-07-23T10:21:12;100291.53;;;33.52;35.50
60417;BME280;46263;44.726;10.396;2022-07-23T10:23:51;100295.13;;;33.53;34.20
60417;BME280;46263;44.726;10.396;2022-07-23T10:26:32;100296.97;;;33.01;34.28
60417;BME280;46263;44.726;10.396;2022-07-23T10:29:02;100285.00;;;33.34;35.41
60417;BME280;46263;44.726;10.396;2022-07-23T10:32:15;100281.84;;;33.80;35.53
60417;BME280;46263;44.726;10.396;2022-07-23T10:37:07;100289.13;;;33.95;33.44
60417;BME280;46263;44.726;10.396;2022-07-23T10:39:34;100278.72;;;34.50;32.15
60417;BME280;46263;44.726;10.396;2022-07-23T10:42:13;100271.38;;;34.21;31.96
60417;BME280;46263;44.726;10.396;2022-07-23T10:44:39;100270.25;;;34.29;32.66
60417;BME280;46263;44.726;10.396;2022-07-23T10:47:05;100266.75;;;34.50;32.67
60417;BME280;46263;44.726;10.396;2022-07-23T10:49:40;100274.22;;;35.29;33.18
60417;BME280;46263;44.726;10.396;2022-07-23T10:54:44;100263.72;;;34.83;32.54
60417;BME280;46263;44.726;10.396;2022-07-23T10:57:13;100253.78;;;35.00;31.87
60417;BME280;46263;44.726;10.396;2022-07-23T11:02:23;100257.88;;;35.49;31.02
60417;BME280;46263;44.726;10.396;2022-07-23T11:04:52;100264.56;;;35.09;29.67
60417;BME280;46263;44.726;10.396;2022-07-23T11:07:17;100255.44;;;36.04;28.95
60417;BME280;46263;44.726;10.396;2022-07-23T11:09:43;100249.03;;;35.15;28.97
60417;BME280;46263;44.726;10.396;2022-07-23T11:14:58;100250.28;;;35.64;28.56
60417;BME280;46263;44.726;10.396;2022-07-23T11:17:24;100245.09;;;35.37;28.33
60417;BME280;46263;44.726;10.396;2022-07-23T11:25:09;100227.75;;;36.42;28.08
60417;BME280;46263;44.726;10.396;2022-07-23T11:27:41;100228.34;;;35.51;28.76
60417;BME280;46263;44.726;10.396;2022-07-23T11:30:07;100236.69;;;35.73;28.90
60417;BME280;46263;44.726;10.396;2022-07-23T11:32:34;100224.31;;;35.63;30.78
60417;BME280;46263;44.726;10.396;2022-07-23T11:35:02;100224.94;;;36.42;28.82
60417;BME280;46263;44.726;10.396;2022-07-23T11:40:07;100229.13;;;35.48;29.31
60417;BME280;46263;44.726;10.396;2022-07-23T11:42:34;100228.72;;;35.71;28.68
60417;BME280;46263;44.726;10.396;2022-07-23T11:44:59;100220.75;;;35.41;28.75
60417;BME280;46263;44.726;10.396;2022-07-23T11:47:26;100214.53;;;36.49;28.00
60417;BME280;46263;44.726;10.396;2022-07-23T11:49:55;100218.69;;;36.06;28.63
60417;BME280;46263;44.726;10.396;2022-07-23T11:52:21;100210.88;;;36.67;28.72
60417;BME280;46263;44.726;10.396;2022-07-23T11:54:50;100207.28;;;37.25;28.16
60417;BME280;46263;44.726;10.396;2022-07-23T11:57:16;100207.03;;;37.05;29.26
60417;BME280;46263;44.726;10.396;2022-07-23T11:59:41;100198.06;;;37.28;28.04
60417;BME280;46263;44.726;10.396;2022-07-23T12:02:07;100190.13;;;36.53;28.52
60417;BME280;46263;44.726;10.396;2022-07-23T12:04:39;100197.78;;;36.39;27.72
60417;BME280;46263;44.726;10.396;2022-07-23T12:07:05;100189.84;;;36.27;27.59
60417;BME280;46263;44.726;10.396;2022-07-23T12:09:47;100182.06;;;36.66;27.57
60417;BME280;46263;44.726;10.396;2022-07-23T12:12:12;100179.75;;;37.20;26.77
60417;BME280;46263;44.726;10.396;2022-07-23T12:14:46;100184.78;;;36.84;27.22
60417;BME280;46263;44.726;10.396;2022-07-23T12:17:11;100176.41;;;36.77;26.96
60417;BME280;46263;44.726;10.396;2022-07-23T12:19:37;100170.81;;;37.32;26.98
60417;BME280;46263;44.726;10.396;2022-07-23T12:22:02;100175.69;;;37.25;26.62
60417;BME280;46263;44.726;10.396;2022-07-23T12:24:28;100176.56;;;37.59;26.31
60417;BME280;46263;44.726;10.396;2022-07-23T12:27:11;100164.47;;;37.69;27.53
60417;BME280;46263;44.726;10.396;2022-07-23T12:29:37;100170.34;;;37.41;25.64
60417;BME280;46263;44.726;10.396;2022-07-23T12:32:02;100170.66;;;36.32;27.53
60417;BME280;46263;44.726;10.396;2022-07-23T12:34:39;100164.66;;;36.37;27.05
60417;BME280;46263;44.726;10.396;2022-07-23T12:37:07;100157.22;;;36.75;29.16
60417;BME280;46263;44.726;10.396;2022-07-23T12:39:33;100160.34;;;37.40;26.06
60417;BME280;46263;44.726;10.396;2022-07-23T12:41:58;100146.41;;;37.74;26.93
60417;BME280;46263;44.726;10.396;2022-07-23T12:44:24;100151.06;;;37.84;26.48
60417;BME280;46263;44.726;10.396;2022-07-23T12:46:50;100154.31;;;37.41;26.48
60417;BME280;46263;44.726;10.396;2022-07-23T12:49:27;100144.56;;;37.94;26.61
60417;BME280;46263;44.726;10.396;2022-07-23T12:51:52;100144.19;;;38.26;26.87
60417;BME280;46263;44.726;10.396;2022-07-23T12:54:17;100140.53;;;38.29;26.40
60417;BME280;46263;44.726;10.396;2022-07-23T12:56:46;100137.66;;;38.02;25.85
60417;BME280;46263;44.726;10.396;2022-07-23T12:59:12;100134.16;;;38.56;26.40
60417;BME280;46263;44.726;10.396;2022-07-23T13:01:45;100139.78;;;38.82;24.51
60417;BME280;46263;44.726;10.396;2022-07-23T13:04:23;100142.59;;;37.91;25.92
60417;BME280;46263;44.726;10.396;2022-07-23T13:06:50;100120.94;;;38.26;25.37